sensor_id;sensor_type;location;lat;lon;timestamp;P1;durP1;ratioP1;P2;durP2;ratioP2
6864;SDS011;3471;49.678;8.388;2023-07-31T00:02:22;4.10;;;2.47;;
6864;SDS011;3471;49.678;8.388;2023-07-31T00:04:48;4.30;;;2.08;;
6864;SDS011;3471;49.678;8.388;2023-07-31T00:07:14;3.65;;;2.35;;
6864;SDS011;3471;49.678;8.388;2023-07-31T00:09:39;3.17;;;2.47;;
6864;SDS011;3471;49.678;8.388;2023-07-31T00:12:05;5.70;;;2.90;;
6864;SDS011;3471;49.678;8.388;2023-07-31T00:14:31;8.07;;;3.83;;
6864;SDS011;3471;49.678;8.388;2023-07-31T00:16:57;3.80;;;2.60;;
6864;SDS011;3471;49.678;8.388;2023-07-31T00:19:22;3.07;;;1.73;;
6864;SDS011;3471;49.678;8.388;2023-07-31T00:21:48;6.50;;;2.60;;
6864;SDS011;3471;49.678;8.388;2023-07-31T00:24:13;5.40;;;3.30;;
6864;SDS011;3471;49.678;8.388;2023-07-31T00:26:39;9.63;;;3.13;;
6864;SDS011;3471;49.678;8.388;2023-07-31T00:29:04;6.07;;;2.20;;
6864;SDS011;3471;49.678;8.388;2023-07-31T00:31:30;5.87;;;3.07;;
6864;SDS011;3471;49.678;8.388;2023-07-31T00:33:56;2.20;;;1.33;;
6864;SDS011;3471;49.678;8.388;2023-07-31T00:36:21;2.50;;;2.00;;
6864;SDS011;3471;49.678;8.388;2023-07-31T00:38:47;7.28;;;3.55;;
6864;SDS011;3471;49.678;8.388;2023-07-31T00:41:12;8.60;;;2.00;;
6864;SDS011;3471;49.678;8.388;2023-07-31T00:43:38;5.90;;;2.20;;
6864;SDS011;3471;49.678;8.388;2023-07-31T00:46:03;8.30;;;2.22;;
6864;SDS011;3471;49.678;8.388;2023-07-31T00:48:29;2.30;;;2.10;;
6864;SDS011;3471;49.678;8.388;2023-07-31T00:50:55;3.80;;;1.95;;
6864;SDS011;3471;49.678;8.388;2023-07-31T00:53:21;2.90;;;2.10;;
6864;SDS011;3471;49.678;8.388;2023-07-31T00:55:47;4.53;;;1.77;;
6864;SDS011;3471;49.678;8.388;2023-07-31T00:58:13;3.40;;;2.70;;
6864;SDS011;3471;49.678;8.388;2023-07-31T01:00:39;4.10;;;1.97;;
6864;SDS011;3471;49.678;8.388;2023-07-31T01:03:04;7.63;;;2.47;;
6864;SDS011;3471;49.678;8.388;2023-07-31T01:05:42;3.67;;;1.90;;
6864;SDS011;3471;49.678;8.388;2023-07-31T01:08:40;5.30;;;2.20;;
6864;SDS011;3471;49.678;8.388;2023-07-31T01:11:14;7.05;;;2.60;;
6864;SDS011;3471;49.678;8.388;2023-07-31T01:13:44;6.57;;;2.20;;
6864;SDS011;3471;49.678;8.388;2023-07-31T01:16:11;10.27;;;2.42;;
6864;SDS011;3471;49.678;8.388;2023-07-31T01:18:36;4.20;;;2.80;;
6864;SDS011;3471;49.678;8.388;2023-07-31T01:21:03;2.90;;;2.40;;
6864;SDS011;3471;49.678;8.388;2023-07-31T01:27:04;8.73;;;2.60;;
6864;SDS011;3471;49.678;8.388;2023-07-31T01:29:48;3.30;;;2.13;;
6864;SDS011;3471;49.678;8.388;2023-07-31T01:32:21;4.83;;;2.70;;
6864;SDS011;3471;49.678;8.388;2023-07-31T01:34:48;12.35;;;2.80;;
6864;SDS011;3471;49.678;8.388;2023-07-31T01:37:14;4.45;;;2.67;;
6864;SDS011;3471;49.678;8.388;2023-07-31T01:39:40;5.22;;;2.40;;
6864;SDS011;3471;49.678;8.388;2023-07-31T01:42:05;5.07;;;2.20;;
6864;SDS011;3471;49.678;8.388;2023-07-31T01:44:32;4.93;;;2.22;;
6864;SDS011;3471;49.678;8.388;2023-07-31T01:46:58;3.00;;;2.30;;
6864;SDS011;3471;49.678;8.388;2023-07-31T01:49:25;4.80;;;2.17;;
6864;SDS011;3471;49.678;8.388;2023-07-31T01:51:50;5.10;;;2.13;;
6864;SDS011;3471;49.678;8.388;2023-07-31T01:54:16;2.40;;;1.63;;
6864;SDS011;3471;49.678;8.388;2023-07-31T01:56:42;2.73;;;2.33;;
6864;SDS011;3471;49.678;8.388;2023-07-31T01:59:07;3.17;;;2.00;;
6864;SDS011;3471;49.678;8.388;2023-07-31T02:01:33;2.40;;;1.90;;
6864;SDS011;3471;49.678;8.388;2023-07-31T02:03:58;6.90;;;1.63;;
6864;SDS011;3471;49.678;8.388;2023-07-31T02:06:24;12.98;;;3.65;;
6864;SDS011;3471;49.678;8.388;2023-07-31T02:08:49;3.63;;;2.00;;
6864;SDS011;3471;49.678;8.388;2023-07-31T02:11:15;4.35;;;3.50;;
6864;SDS011;3471;49.678;8.388;2023-07-31T02:13:41;9.90;;;2.70;;
6864;SDS011;3471;49.678;8.388;2023-07-31T02:16:06;8.85;;;3.20;;
6864;SDS011;3471;49.678;8.388;2023-07-31T02:18:32;8.10;;;2.80;;
6864;SDS011;3471;49.678;8.388;2023-07-31T02:20:57;2.60;;;1.95;;
6864;SDS011;3471;49.678;8.388;2023-07-31T02:23:23;3.47;;;2.60;;
6864;SDS011;3471;49.678;8.388;2023-07-31T02:25:48;3.50;;;2.10;;
6864;SDS011;3471;49.678;8.388;2023-07-31T02:28:14;3.60;;;2.22;;
6864;SDS011;3471;49.678;8.388;2023-07-31T02:30:40;4.10;;;2.42;;
6864;SDS011;3471;49.678;8.388;2023-07-31T02:33:08;3.40;;;2.00;;
6864;SDS011;3471;49.678;8.388;2023-07-31T02:35:34;3.50;;;2.05;;
6864;SDS011;3471;49.678;8.388;2023-07-31T02:37:59;3.97;;;2.95;;
6864;SDS011;3471;49.678;8.388;2023-07-31T02:40:25;5.97;;;2.90;;
6864;SDS011;3471;49.678;8.388;2023-07-31T02:42:50;3.90;;;2.80;;
6864;SDS011;3471;49.678;8.388;2023-07-31T02:45:16;4.43;;;2.30;;
6864;SDS011;3471;49.678;8.388;2023-07-31T02:47:41;8.43;;;2.40;;
6864;SDS011;3471;49.678;8.388;2023-07-31T02:50:07;4.33;;;2.23;;
6864;SDS011;3471;49.678;8.388;2023-07-31T02:52:33;8.90;;;2.20;;
6864;SDS011;3471;49.678;8.388;2023-07-31T02:54:58;3.70;;;3.03;;
6864;SDS011;3471;49.678;8.388;2023-07-31T02:57:24;14.48;;;4.88;;
6864;SDS011;3471;49.678;8.388;2023-07-31T02:59:50;5.50;;;2.80;;
6864;SDS011;3471;49.678;8.388;2023-07-31T03:02:15;2.90;;;2.60;;
6864;SDS011;3471;49.678;8.388;2023-07-31T03:04:41;2.20;;;2.00;;
6864;SDS011;3471;49.678;8.388;2023-07-31T03:07:06;5.15;;;3.30;;
6864;SDS011;3471;49.678;8.388;2023-07-31T03:09:32;4.60;;;2.90;;
6864;SDS011;3471;49.678;8.388;2023-07-31T03:11:58;5.97;;;2.92;;
6864;SDS011;3471;49.678;8.388;2023-07-31T03:14:23;7.03;;;4.13;;
6864;SDS011;3471;49.678;8.388;2023-07-31T03:16:51;3.35;;;2.30;;
6864;SDS011;3471;49.678;8.388;2023-07-31T03:19:17;3.00;;;2.20;;
6864;SDS011;3471;49.678;8.388;2023-07-31T03:21:42;4.60;;;3.33;;
6864;SDS011;3471;49.678;8.388;2023-07-31T03:24:08;2.53;;;2.07;;
6864;SDS011;3471;49.678;8.388;2023-07-31T03:26:33;6.23;;;3.30;;
6864;SDS011;3471;49.678;8.388;2023-07-31T03:29:00;3.80;;;2.13;;
6864;SDS011;3471;49.678;8.388;2023-07-31T03:31:25;3.20;;;2.90;;
6864;SDS011;3471;49.678;8.388;2023-07-31T03:33:51;5.90;;;2.40;;
6864;SDS011;3471;49.678;8.388;2023-07-31T03:36:16;5.07;;;3.22;;
6864;SDS011;3471;49.678;8.388;2023-07-31T03:38:42;7.05;;;2.30;;
6864;SDS011;3471;49.678;8.388;2023-07-31T03:41:08;4.72;;;3.13;;
6864;SDS011;3471;49.678;8.388;2023-07-31T03:43:35;3.77;;;2.20;;
6864;SDS011;3471;49.678;8.388;2023-07-31T03:46:01;3.43;;;2.20;;
6864;SDS011;3471;49.678;8.388;2023-07-31T03:48:27;4.47;;;2.50;;
6864;SDS011;3471;49.678;8.388;2023-07-31T03:50:53;16.83;;;2.63;;
6864;SDS011;3471;49.678;8.388;2023-07-31T03:53:19;4.53;;;3.90;;
6864;SDS011;3471;49.678;8.388;2023-07-31T03:55:48;4.23;;;2.90;;
6864;SDS011;3471;49.678;8.388;2023-07-31T03:58:13;4.77;;;3.13;;
6864;SDS011;3471;49.678;8.388;2023-07-31T04:00:40;4.53;;;3.37;;
6864;SDS011;3471;49.678;8.388;2023-07-31T04:03:05;6.60;;;3.03;;
6864;SDS011;3471;49.678;8.388;2023-07-31T04:05:31;5.90;;;2.60;;
6864;SDS011;3471;49.678;8.388;2023-07-31T04:07:57;7.55;;;4.00;;
6864;SDS011;3471;49.678;8.388;2023-07-31T04:10:23;15.60;;;3.20;;
6864;SDS011;3471;49.678;8.388;2023-07-31T04:12:49;3.90;;;2.63;;
6864;SDS011;3471;49.678;8.388;2023-07-31T04:15:14;6.60;;;3.70;;
6864;SDS011;3471;49.678;8.388;2023-07-31T04:17:40;8.47;;;3.80;;
6864;SDS011;3471;49.678;8.388;2023-07-31T04:20:05;4.20;;;2.93;;
6864;SDS011;3471;49.678;8.388;2023-07-31T04:22:31;2.88;;;1.90;;
6864;SDS011;3471;49.678;8.388;2023-07-31T04:24:57;4.07;;;1.83;;
6864;SDS011;3471;49.678;8.388;2023-07-31T04:27:23;7.60;;;3.60;;
6864;SDS011;3471;49.678;8.388;2023-07-31T04:29:48;3.80;;;2.80;;
6864;SDS011;3471;49.678;8.388;2023-07-31T04:32:14;11.52;;;2.95;;
6864;SDS011;3471;49.678;8.388;2023-07-31T04:34:41;5.47;;;2.40;;
6864;SDS011;3471;49.678;8.388;2023-07-31T04:37:07;9.40;;;3.28;;
6864;SDS011;3471;49.678;8.388;2023-07-31T04:39:33;9.43;;;2.47;;
6864;SDS011;3471;49.678;8.388;2023-07-31T04:41:58;4.00;;;2.70;;
6864;SDS011;3471;49.678;8.388;2023-07-31T04:44:24;8.40;;;3.30;;
6864;SDS011;3471;49.678;8.388;2023-07-31T04:46:49;5.70;;;1.70;;
6864;SDS011;3471;49.678;8.388;2023-07-31T04:49:15;5.00;;;3.00;;
6864;SDS011;3471;49.678;8.388;2023-07-31T04:51:40;2.70;;;1.87;;
6864;SDS011;3471;49.678;8.388;2023-07-31T04:54:06;12.07;;;2.97;;
6864;SDS011;3471;49.678;8.388;2023-07-31T04:56:32;359.70;;;342.80;;
6864;SDS011;3471;49.678;8.388;2023-07-31T04:58:57;290.73;;;277.87;;
6864;SDS011;3471;49.678;8.388;2023-07-31T05:01:23;347.25;;;331.40;;
6864;SDS011;3471;49.678;8.388;2023-07-31T05:03:48;332.30;;;317.35;;
6864;SDS011;3471;49.678;8.388;2023-07-31T05:06:14;422.17;;;400.80;;
6864;SDS011;3471;49.678;8.388;2023-07-31T05:08:40;419.23;;;397.83;;
6864;SDS011;3471;49.678;8.388;2023-07-31T05:11:05;384.77;;;366.13;;
6864;SDS011;3471;49.678;8.388;2023-07-31T05:13:31;328.50;;;313.65;;
6864;SDS011;3471;49.678;8.388;2023-07-31T05:15:57;320.80;;;306.77;;
6864;SDS011;3471;49.678;8.388;2023-07-31T05:18:22;322.13;;;308.13;;
6864;SDS011;3471;49.678;8.388;2023-07-31T05:20:48;321.23;;;307.00;;
6864;SDS011;3471;49.678;8.388;2023-07-31T05:23:13;316.27;;;302.33;;
6864;SDS011;3471;49.678;8.388;2023-07-31T05:25:39;222.00;;;213.43;;
6864;SDS011;3471;49.678;8.388;2023-07-31T05:28:05;172.20;;;164.73;;
6864;SDS011;3471;49.678;8.388;2023-07-31T05:30:30;337.00;;;322.45;;
6864;SDS011;3471;49.678;8.388;2023-07-31T05:32:56;267.90;;;255.98;;
6864;SDS011;3471;49.678;8.388;2023-07-31T05:35:22;230.10;;;220.65;;
6864;SDS011;3471;49.678;8.388;2023-07-31T05:37:48;312.07;;;298.40;;
6864;SDS011;3471;49.678;8.388;2023-07-31T05:40:13;283.40;;;271.17;;
6864;SDS011;3471;49.678;8.388;2023-07-31T05:42:39;335.70;;;320.38;;
6864;SDS011;3471;49.678;8.388;2023-07-31T05:45:08;446.10;;;422.50;;
6864;SDS011;3471;49.678;8.388;2023-07-31T05:47:34;448.15;;;423.73;;
6864;SDS011;3471;49.678;8.388;2023-07-31T05:50:00;365.70;;;348.63;;
6864;SDS011;3471;49.678;8.388;2023-07-31T05:52:26;413.70;;;393.33;;
6864;SDS011;3471;49.678;8.388;2023-07-31T05:54:53;400.73;;;380.20;;
6864;SDS011;3471;49.678;8.388;2023-07-31T05:57:19;389.38;;;370.17;;
6864;SDS011;3471;49.678;8.388;2023-07-31T05:59:45;420.77;;;399.73;;
6864;SDS011;3471;49.678;8.388;2023-07-31T06:02:11;432.33;;;409.83;;
6864;SDS011;3471;49.678;8.388;2023-07-31T06:04:36;497.50;;;467.30;;
6864;SDS011;3471;49.678;8.388;2023-07-31T06:07:02;558.70;;;521.93;;
6864;SDS011;3471;49.678;8.388;2023-07-31T06:09:28;502.77;;;471.35;;
6864;SDS011;3471;49.678;8.388;2023-07-31T06:11:54;398.20;;;378.08;;
6864;SDS011;3471;49.678;8.388;2023-07-31T06:14:20;317.30;;;303.00;;
6864;SDS011;3471;49.678;8.388;2023-07-31T06:16:45;390.52;;;370.67;;
6864;SDS011;3471;49.678;8.388;2023-07-31T06:19:11;360.25;;;343.20;;
6864;SDS011;3471;49.678;8.388;2023-07-31T06:21:36;421.00;;;399.08;;
6864;SDS011;3471;49.678;8.388;2023-07-31T06:24:03;426.50;;;404.65;;
6864;SDS011;3471;49.678;8.388;2023-07-31T06:26:30;312.77;;;298.98;;
6864;SDS011;3471;49.678;8.388;2023-07-31T06:28:56;211.97;;;203.17;;
6864;SDS011;3471;49.678;8.388;2023-07-31T06:31:21;323.40;;;308.97;;
6864;SDS011;3471;49.678;8.388;2023-07-31T06:33:51;302.70;;;289.60;;
6864;SDS011;3471;49.678;8.388;2023-07-31T06:36:17;348.45;;;332.20;;
6864;SDS011;3471;49.678;8.388;2023-07-31T06:38:43;209.60;;;201.05;;
6864;SDS011;3471;49.678;8.388;2023-07-31T06:41:08;395.27;;;375.52;;
6864;SDS011;3471;49.678;8.388;2023-07-31T06:43:35;373.50;;;355.58;;
6864;SDS011;3471;49.678;8.388;2023-07-31T06:46:07;271.80;;;260.55;;
6864;SDS011;3471;49.678;8.388;2023-07-31T06:48:34;417.05;;;395.08;;
6864;SDS011;3471;49.678;8.388;2023-07-31T06:51:00;382.85;;;364.75;;
6864;SDS011;3471;49.678;8.388;2023-07-31T06:53:26;355.13;;;338.80;;
6864;SDS011;3471;49.678;8.388;2023-07-31T06:55:51;385.38;;;366.67;;
6864;SDS011;3471;49.678;8.388;2023-07-31T06:58:17;518.08;;;486.10;;
6864;SDS011;3471;49.678;8.388;2023-07-31T07:00:43;367.63;;;349.80;;
6864;SDS011;3471;49.678;8.388;2023-07-31T07:03:08;357.38;;;340.00;;
6864;SDS011;3471;49.678;8.388;2023-07-31T07:05:34;456.15;;;430.60;;
6864;SDS011;3471;49.678;8.388;2023-07-31T07:08:02;326.38;;;311.80;;
6864;SDS011;3471;49.678;8.388;2023-07-31T07:10:27;244.23;;;234.18;;
6864;SDS011;3471;49.678;8.388;2023-07-31T07:12:53;318.45;;;304.40;;
6864;SDS011;3471;49.678;8.388;2023-07-31T07:15:20;349.73;;;333.83;;
6864;SDS011;3471;49.678;8.388;2023-07-31T07:17:46;263.80;;;252.13;;
6864;SDS011;3471;49.678;8.388;2023-07-31T07:20:11;317.63;;;302.93;;
6864;SDS011;3471;49.678;8.388;2023-07-31T07:22:37;298.05;;;285.17;;
6864;SDS011;3471;49.678;8.388;2023-07-31T07:25:03;274.77;;;262.48;;
6864;SDS011;3471;49.678;8.388;2023-07-31T07:27:30;245.45;;;235.25;;
6864;SDS011;3471;49.678;8.388;2023-07-31T07:29:55;229.43;;;218.90;;
6864;SDS011;3471;49.678;8.388;2023-07-31T07:32:21;334.85;;;318.75;;
6864;SDS011;3471;49.678;8.388;2023-07-31T07:34:47;280.20;;;268.10;;
6864;SDS011;3471;49.678;8.388;2023-07-31T07:37:13;407.33;;;386.10;;
6864;SDS011;3471;49.678;8.388;2023-07-31T07:39:39;245.52;;;234.32;;
6864;SDS011;3471;49.678;8.388;2023-07-31T07:42:06;268.23;;;256.50;;
6864;SDS011;3471;49.678;8.388;2023-07-31T07:44:31;378.58;;;358.92;;
6864;SDS011;3471;49.678;8.388;2023-07-31T07:46:57;336.03;;;320.20;;
6864;SDS011;3471;49.678;8.388;2023-07-31T07:49:22;410.77;;;389.03;;
6864;SDS011;3471;49.678;8.388;2023-07-31T07:51:48;420.30;;;398.27;;
6864;SDS011;3471;49.678;8.388;2023-07-31T07:54:14;401.33;;;380.83;;
6864;SDS011;3471;49.678;8.388;2023-07-31T07:56:41;101.15;;;96.05;;
6864;SDS011;3471;49.678;8.388;2023-07-31T07:59:07;11.13;;;8.25;;
6864;SDS011;3471;49.678;8.388;2023-07-31T08:01:33;73.82;;;70.90;;
6864;SDS011;3471;49.678;8.388;2023-07-31T08:03:58;119.72;;;115.18;;
6864;SDS011;3471;49.678;8.388;2023-07-31T08:06:24;132.85;;;127.50;;
6864;SDS011;3471;49.678;8.388;2023-07-31T08:08:50;82.82;;;77.97;;
6864;SDS011;3471;49.678;8.388;2023-07-31T08:11:15;87.15;;;83.63;;
6864;SDS011;3471;49.678;8.388;2023-07-31T08:13:41;156.27;;;150.20;;
6864;SDS011;3471;49.678;8.388;2023-07-31T08:16:06;406.67;;;385.77;;
6864;SDS011;3471;49.678;8.388;2023-07-31T08:18:32;203.70;;;195.53;;
6864;SDS011;3471;49.678;8.388;2023-07-31T08:20:58;102.97;;;98.20;;
6864;SDS011;3471;49.678;8.388;2023-07-31T08:23:24;216.23;;;206.93;;
6864;SDS011;3471;49.678;8.388;2023-07-31T08:25:49;307.33;;;293.60;;
6864;SDS011;3471;49.678;8.388;2023-07-31T08:28:15;254.15;;;242.10;;
6864;SDS011;3471;49.678;8.388;2023-07-31T08:30:41;63.45;;;60.75;;
6864;SDS011;3471;49.678;8.388;2023-07-31T08:33:07;29.25;;;27.88;;
6864;SDS011;3471;49.678;8.388;2023-07-31T08:35:33;29.70;;;28.00;;
6864;SDS011;3471;49.678;8.388;2023-07-31T08:37:59;6.10;;;5.20;;
6864;SDS011;3471;49.678;8.388;2023-07-31T08:40:24;5.10;;;4.70;;
6864;SDS011;3471;49.678;8.388;2023-07-31T08:42:52;61.83;;;59.28;;
6864;SDS011;3471;49.678;8.388;2023-07-31T08:45:19;25.20;;;24.13;;
6864;SDS011;3471;49.678;8.388;2023-07-31T08:47:49;4.25;;;3.92;;
6864;SDS011;3471;49.678;8.388;2023-07-31T08:50:16;77.00;;;73.95;;
6864;SDS011;3471;49.678;8.388;2023-07-31T08:52:43;74.15;;;71.20;;
6864;SDS011;3471;49.678;8.388;2023-07-31T08:55:09;52.00;;;49.53;;
6864;SDS011;3471;49.678;8.388;2023-07-31T08:57:36;27.63;;;25.85;;
6864;SDS011;3471;49.678;8.388;2023-07-31T09:00:03;202.38;;;193.35;;
6864;SDS011;3471;49.678;8.388;2023-07-31T09:02:41;133.13;;;127.95;;
6864;SDS011;3471;49.678;8.388;2023-07-31T09:05:10;86.80;;;83.38;;
6864;SDS011;3471;49.678;8.388;2023-07-31T09:07:37;376.00;;;357.75;;
6864;SDS011;3471;49.678;8.388;2023-07-31T09:10:03;90.38;;;86.57;;
6864;SDS011;3471;49.678;8.388;2023-07-31T09:12:30;111.22;;;106.40;;
6864;SDS011;3471;49.678;8.388;2023-07-31T09:14:56;52.58;;;50.10;;
6864;SDS011;3471;49.678;8.388;2023-07-31T09:17:29;9.43;;;7.80;;
6864;SDS011;3471;49.678;8.388;2023-07-31T09:19:56;82.63;;;79.18;;
6864;SDS011;3471;49.678;8.388;2023-07-31T09:22:34;10.32;;;9.63;;
6864;SDS011;3471;49.678;8.388;2023-07-31T09:25:16;9.43;;;4.38;;
6864;SDS011;3471;49.678;8.388;2023-07-31T09:30:28;6.28;;;4.13;;
6864;SDS011;3471;49.678;8.388;2023-07-31T09:33:03;123.05;;;117.60;;
6864;SDS011;3471;49.678;8.388;2023-07-31T09:35:34;167.02;;;160.38;;
6864;SDS011;3471;49.678;8.388;2023-07-31T09:38:01;109.23;;;104.70;;
6864;SDS011;3471;49.678;8.388;2023-07-31T09:40:39;244.82;;;234.20;;
6864;SDS011;3471;49.678;8.388;2023-07-31T09:43:09;144.37;;;138.70;;
6864;SDS011;3471;49.678;8.388;2023-07-31T09:45:40;126.65;;;121.65;;
6864;SDS011;3471;49.678;8.388;2023-07-31T09:48:11;99.37;;;95.30;;
6864;SDS011;3471;49.678;8.388;2023-07-31T09:50:38;40.55;;;38.67;;
6864;SDS011;3471;49.678;8.388;2023-07-31T09:53:05;29.67;;;28.00;;
6864;SDS011;3471;49.678;8.388;2023-07-31T09:55:31;143.40;;;137.32;;
6864;SDS011;3471;49.678;8.388;2023-07-31T09:57:57;130.98;;;125.07;;
6864;SDS011;3471;49.678;8.388;2023-07-31T10:00:23;56.83;;;54.15;;
6864;SDS011;3471;49.678;8.388;2023-07-31T10:02:53;106.80;;;102.22;;
6864;SDS011;3471;49.678;8.388;2023-07-31T10:05:19;53.70;;;51.33;;
6864;SDS011;3471;49.678;8.388;2023-07-31T10:07:49;62.35;;;59.28;;
6864;SDS011;3471;49.678;8.388;2023-07-31T10:10:19;88.88;;;85.22;;
6864;SDS011;3471;49.678;8.388;2023-07-31T10:12:46;107.93;;;103.53;;
6864;SDS011;3471;49.678;8.388;2023-07-31T10:15:13;163.65;;;157.32;;
6864;SDS011;3471;49.678;8.388;2023-07-31T10:17:40;78.68;;;75.47;;
6864;SDS011;3471;49.678;8.388;2023-07-31T10:20:06;185.20;;;177.55;;
6864;SDS011;3471;49.678;8.388;2023-07-31T10:22:33;109.70;;;104.93;;
6864;SDS011;3471;49.678;8.388;2023-07-31T10:25:00;272.95;;;260.65;;
6864;SDS011;3471;49.678;8.388;2023-07-31T10:27:26;184.90;;;177.20;;
6864;SDS011;3471;49.678;8.388;2023-07-31T10:29:52;186.90;;;179.23;;
6864;SDS011;3471;49.678;8.388;2023-07-31T10:32:20;104.07;;;99.47;;
6864;SDS011;3471;49.678;8.388;2023-07-31T10:34:47;241.55;;;231.52;;
6864;SDS011;3471;49.678;8.388;2023-07-31T10:37:24;294.83;;;282.10;;
6864;SDS011;3471;49.678;8.388;2023-07-31T10:42:52;337.55;;;321.80;;
6864;SDS011;3471;49.678;8.388;2023-07-31T10:45:33;220.43;;;210.65;;
6864;SDS011;3471;49.678;8.388;2023-07-31T10:50:30;379.45;;;359.88;;
6864;SDS011;3471;49.678;8.388;2023-07-31T10:52:58;296.73;;;283.55;;
6864;SDS011;3471;49.678;8.388;2023-07-31T10:58:08;477.05;;;449.20;;
6864;SDS011;3471;49.678;8.388;2023-07-31T11:00:39;381.80;;;363.20;;
6864;SDS011;3471;49.678;8.388;2023-07-31T11:03:07;338.25;;;320.25;;
6864;SDS011;3471;49.678;8.388;2023-07-31T11:08:20;352.30;;;335.33;;
6864;SDS011;3471;49.678;8.388;2023-07-31T11:10:51;436.57;;;412.83;;
6864;SDS011;3471;49.678;8.388;2023-07-31T11:13:33;275.00;;;262.80;;
6864;SDS011;3471;49.678;8.388;2023-07-31T11:16:05;150.98;;;144.93;;
6864;SDS011;3471;49.678;8.388;2023-07-31T11:18:31;357.27;;;340.03;;
6864;SDS011;3471;49.678;8.388;2023-07-31T11:20:56;130.93;;;125.53;;
6864;SDS011;3471;49.678;8.388;2023-07-31T11:23:22;173.15;;;166.00;;
6864;SDS011;3471;49.678;8.388;2023-07-31T11:25:48;116.32;;;111.70;;
6864;SDS011;3471;49.678;8.388;2023-07-31T11:28:15;121.43;;;116.40;;
6864;SDS011;3471;49.678;8.388;2023-07-31T11:30:42;168.80;;;162.30;;
6864;SDS011;3471;49.678;8.388;2023-07-31T11:33:09;307.05;;;293.13;;
6864;SDS011;3471;49.678;8.388;2023-07-31T11:35:40;156.68;;;150.55;;
6864;SDS011;3471;49.678;8.388;2023-07-31T11:38:06;116.38;;;111.50;;
6864;SDS011;3471;49.678;8.388;2023-07-31T11:40:40;127.13;;;122.30;;
6864;SDS011;3471;49.678;8.388;2023-07-31T11:43:09;161.30;;;154.68;;
6864;SDS011;3471;49.678;8.388;2023-07-31T11:45:36;359.80;;;342.70;;
6864;SDS011;3471;49.678;8.388;2023-07-31T11:48:03;320.50;;;304.92;;
6864;SDS011;3471;49.678;8.388;2023-07-31T11:50:29;191.10;;;183.70;;
6864;SDS011;3471;49.678;8.388;2023-07-31T11:53:00;435.60;;;412.02;;
6864;SDS011;3471;49.678;8.388;2023-07-31T11:55:32;389.95;;;370.75;;
6864;SDS011;3471;49.678;8.388;2023-07-31T11:57:58;339.75;;;323.98;;
6864;SDS011;3471;49.678;8.388;2023-07-31T12:00:25;423.52;;;401.38;;
6864;SDS011;3471;49.678;8.388;2023-07-31T12:02:52;461.95;;;435.95;;
6864;SDS011;3471;49.678;8.388;2023-07-31T12:05:18;433.40;;;409.85;;
6864;SDS011;3471;49.678;8.388;2023-07-31T12:10:24;366.27;;;348.50;;
6864;SDS011;3471;49.678;8.388;2023-07-31T12:12:58;493.75;;;462.42;;
6864;SDS011;3471;49.678;8.388;2023-07-31T12:15:47;395.77;;;375.83;;
6864;SDS011;3471;49.678;8.388;2023-07-31T12:18:14;435.00;;;411.35;;
6864;SDS011;3471;49.678;8.388;2023-07-31T12:20:47;328.77;;;313.33;;
6864;SDS011;3471;49.678;8.388;2023-07-31T12:23:15;467.83;;;440.13;;
6864;SDS011;3471;49.678;8.388;2023-07-31T12:25:40;355.48;;;338.33;;
6864;SDS011;3471;49.678;8.388;2023-07-31T12:28:06;346.48;;;329.52;;
6864;SDS011;3471;49.678;8.388;2023-07-31T12:30:36;385.33;;;363.90;;
6864;SDS011;3471;49.678;8.388;2023-07-31T12:33:12;375.55;;;356.20;;
6864;SDS011;3471;49.678;8.388;2023-07-31T12:35:46;438.58;;;415.33;;
6864;SDS011;3471;49.678;8.388;2023-07-31T12:38:12;354.90;;;337.52;;
6864;SDS011;3471;49.678;8.388;2023-07-31T12:40:38;314.48;;;300.27;;
6864;SDS011;3471;49.678;8.388;2023-07-31T12:43:05;272.70;;;259.90;;
6864;SDS011;3471;49.678;8.388;2023-07-31T12:45:32;279.75;;;265.27;;
6864;SDS011;3471;49.678;8.388;2023-07-31T12:47:58;328.92;;;313.95;;
6864;SDS011;3471;49.678;8.388;2023-07-31T12:50:24;262.88;;;251.25;;
6864;SDS011;3471;49.678;8.388;2023-07-31T12:52:50;158.60;;;151.90;;
6864;SDS011;3471;49.678;8.388;2023-07-31T12:55:16;159.30;;;152.77;;
6864;SDS011;3471;49.678;8.388;2023-07-31T12:57:43;199.23;;;191.18;;
6864;SDS011;3471;49.678;8.388;2023-07-31T13:00:09;236.93;;;227.10;;
6864;SDS011;3471;49.678;8.388;2023-07-31T13:02:36;323.38;;;308.58;;
6864;SDS011;3471;49.678;8.388;2023-07-31T13:05:01;358.85;;;341.58;;
6864;SDS011;3471;49.678;8.388;2023-07-31T13:07:27;203.95;;;195.57;;
6864;SDS011;3471;49.678;8.388;2023-07-31T13:09:53;362.33;;;344.33;;
6864;SDS011;3471;49.678;8.388;2023-07-31T13:12:18;318.13;;;303.10;;
6864;SDS011;3471;49.678;8.388;2023-07-31T13:14:44;378.42;;;359.27;;
6864;SDS011;3471;49.678;8.388;2023-07-31T13:17:09;284.60;;;271.47;;
6864;SDS011;3471;49.678;8.388;2023-07-31T13:19:35;240.10;;;229.60;;
6864;SDS011;3471;49.678;8.388;2023-07-31T13:22:00;173.30;;;166.07;;
6864;SDS011;3471;49.678;8.388;2023-07-31T13:24:26;293.03;;;280.10;;
6864;SDS011;3471;49.678;8.388;2023-07-31T13:26:52;211.47;;;202.27;;
6864;SDS011;3471;49.678;8.388;2023-07-31T13:29:17;321.23;;;306.05;;
6864;SDS011;3471;49.678;8.388;2023-07-31T13:31:43;342.73;;;326.23;;
6864;SDS011;3471;49.678;8.388;2023-07-31T13:34:08;51.53;;;49.27;;
6864;SDS011;3471;49.678;8.388;2023-07-31T13:36:34;210.20;;;201.45;;
6864;SDS011;3471;49.678;8.388;2023-07-31T13:39:02;34.05;;;32.33;;
6864;SDS011;3471;49.678;8.388;2023-07-31T13:41:28;6.13;;;4.55;;
6864;SDS011;3471;49.678;8.388;2023-07-31T13:43:53;6.50;;;5.97;;
6864;SDS011;3471;49.678;8.388;2023-07-31T13:46:19;19.83;;;12.43;;
6864;SDS011;3471;49.678;8.388;2023-07-31T13:48:44;7.20;;;5.00;;
6864;SDS011;3471;49.678;8.388;2023-07-31T13:51:10;10.15;;;4.82;;
6864;SDS011;3471;49.678;8.388;2023-07-31T13:53:35;9.25;;;6.57;;
6864;SDS011;3471;49.678;8.388;2023-07-31T13:56:01;7.13;;;4.70;;
6864;SDS011;3471;49.678;8.388;2023-07-31T13:58:27;4.53;;;4.20;;
6864;SDS011;3471;49.678;8.388;2023-07-31T14:00:52;8.90;;;4.10;;
6864;SDS011;3471;49.678;8.388;2023-07-31T14:03:18;10.10;;;5.40;;
6864;SDS011;3471;49.678;8.388;2023-07-31T14:05:44;7.23;;;4.23;;
6864;SDS011;3471;49.678;8.388;2023-07-31T14:08:09;6.60;;;3.30;;
6864;SDS011;3471;49.678;8.388;2023-07-31T14:10:37;5.18;;;3.08;;
6864;SDS011;3471;49.678;8.388;2023-07-31T14:13:02;13.40;;;4.30;;
6864;SDS011;3471;49.678;8.388;2023-07-31T14:15:28;3.87;;;3.57;;
6864;SDS011;3471;49.678;8.388;2023-07-31T14:17:54;6.00;;;4.30;;
6864;SDS011;3471;49.678;8.388;2023-07-31T14:20:19;5.63;;;3.50;;
6864;SDS011;3471;49.678;8.388;2023-07-31T14:22:45;10.25;;;4.22;;
6864;SDS011;3471;49.678;8.388;2023-07-31T14:25:10;8.25;;;3.10;;
6864;SDS011;3471;49.678;8.388;2023-07-31T14:27:36;12.00;;;3.73;;
6864;SDS011;3471;49.678;8.388;2023-07-31T14:30:02;6.30;;;4.57;;
6864;SDS011;3471;49.678;8.388;2023-07-31T14:32:28;8.13;;;3.97;;
6864;SDS011;3471;49.678;8.388;2023-07-31T14:34:53;8.10;;;5.43;;
6864;SDS011;3471;49.678;8.388;2023-07-31T14:37:20;4.90;;;4.30;;
6864;SDS011;3471;49.678;8.388;2023-07-31T14:39:45;6.73;;;4.43;;
6864;SDS011;3471;49.678;8.388;2023-07-31T14:42:11;5.25;;;4.85;;
6864;SDS011;3471;49.678;8.388;2023-07-31T14:44:37;6.07;;;3.95;;
6864;SDS011;3471;49.678;8.388;2023-07-31T14:47:02;6.55;;;3.72;;
6864;SDS011;3471;49.678;8.388;2023-07-31T14:49:28;10.65;;;3.38;;
6864;SDS011;3471;49.678;8.388;2023-07-31T14:51:54;11.00;;;3.85;;
6864;SDS011;3471;49.678;8.388;2023-07-31T14:54:19;11.00;;;3.97;;
6864;SDS011;3471;49.678;8.388;2023-07-31T14:56:45;5.07;;;3.20;;
6864;SDS011;3471;49.678;8.388;2023-07-31T14:59:10;6.50;;;3.80;;
6864;SDS011;3471;49.678;8.388;2023-07-31T15:01:37;5.30;;;3.13;;
6864;SDS011;3471;49.678;8.388;2023-07-31T15:04:02;4.43;;;3.58;;